Cape York — VRXE9 — position and weather

sailwx.info

Track history (hours):
 
Tides and Currents Weather Stations Pressure Air Temp Water Temp Dewpoint Dewpoint Depression Visibility Wind Speed Wind Dir Waves Ship Positions

Cape York

Last reported at 2017-Oct-11 22:05 UTC. Time now 2017-Oct-22 23:16 UTC.
Position N 39°11' W 075°16'.
Warning: this ship's position is 11 days out of date.

Length 170 m; draft 7.8 m.

Type: Cargo ship. MMSI: 477924000.

Date/timePositionNaut miles runAvg speedWind from/ knotsBaromVisibWave heightAir tempDewpointWater temp
2017-Oct-11 22:05N 39°11' W 075°16'113.0
2017-Oct-11 21:59N 39°12' W 075°17'612.6
2017-Oct-11 21:30N 39°17' W 075°21'612.2
2017-Oct-11 21:00N 39°21' W 075°27'611.3
2017-Oct-11 20:30N 39°25' W 075°32'5 9.4
2017-Oct-11 20:00N 39°30' W 075°33'5 9.4
2017-Oct-11 19:30N 39°35' W 075°33'4 8.0
2017-Oct-11 19:00N 39°39' W 075°34'4 8.7
2017-Oct-11 18:30N 39°42' W 075°31'4 7.5
2017-Oct-11 18:00N 39°46' W 075°29'3 6.2
2017-Oct-11 17:31N 39°48' W 075°26'0 0.3
2017-Oct-11 17:00N 39°48' W 075°26'0 0.0
2017-Oct-11 00:00N 39°48' W 075°26'0 0.0
2017-Oct-10 23:30N 39°48' W 075°26'0 0.0
2017-Oct-10 23:00N 39°48' W 075°26'0 0.0
2017-Oct-10 22:30N 39°48' W 075°26'0 0.0
2017-Oct-10 22:00N 39°48' W 075°26'0 0.0
2017-Oct-10 21:30N 39°48' W 075°26'0 0.0
2017-Oct-10 21:00N 39°48' W 075°26'0 0.0
2017-Oct-10 20:30N 39°48' W 075°26'0 0.0
2017-Oct-10 20:00N 39°48' W 075°26'0 0.0
2017-Oct-10 19:30N 39°48' W 075°26'0 0.0
2017-Oct-10 19:00N 39°48' W 075°26'0 0.0
2017-Oct-10 18:30N 39°48' W 075°26'0 0.0
2017-Oct-10 18:00N 39°48' W 075°26'0 0.0
2017-Oct-10 17:30N 39°48' W 075°26'0 0.0
2017-Oct-10 16:57N 39°48' W 075°26'0 0.0
2017-Oct-10 16:30N 39°48' W 075°26'0 0.0
2017-Oct-10 16:00N 39°48' W 075°26'0 0.0
2017-Oct-10 15:30N 39°48' W 075°26'0 0.0
2017-Oct-10 15:00N 39°48' W 075°26'0 0.0
2017-Oct-10 13:57N 39°48' W 075°26'0 0.0
2017-Oct-10 13:30N 39°48' W 075°26'0 0.0
2017-Oct-10 13:00N 39°48' W 075°26'0 0.0
2017-Oct-10 12:30N 39°48' W 075°26'0 0.0
2017-Oct-10 12:00N 39°48' W 075°26'0 0.0
2017-Oct-10 11:30N 39°48' W 075°26'0 0.0
2017-Oct-10 11:00N 39°48' W 075°26'0 0.0
2017-Oct-10 10:30N 39°48' W 075°26'0 0.0
2017-Oct-10 10:00N 39°48' W 075°26'0 0.0
2017-Oct-10 09:31N 39°48' W 075°26'0 0.6
2017-Oct-10 09:00N 39°48' W 075°26'2 4.6
2017-Oct-10 08:30N 39°46' W 075°28'3 6.9
2017-Oct-10 08:00N 39°43' W 075°30'5 9.4
2017-Oct-10 07:30N 39°39' W 075°33'4 8.3
2017-Oct-10 07:01N 39°35' W 075°33'510.9
2017-Oct-10 06:30N 39°29' W 075°34'612.1
2017-Oct-10 06:00N 39°24' W 075°30'713.3
2017-Oct-10 05:30N 39°19' W 075°24'713.3
2017-Oct-10 05:00N 39°14' W 075°18'1112.8
2017-Oct-10 04:09N 39°05' W 075°11'212.6
2017-Oct-10 04:00N 39°03' W 075°10'67 3.7
2017-Oct-09 09:53N 38°19' W 074°05'512.2
2017-Oct-09 09:29N 38°18' W 073°59'912.4
2017-Oct-09 08:44N 38°16' W 073°47'612.1
2017-Oct-09 08:14N 38°15' W 073°40'  
Track history (hours):
 
Tides and Currents Weather Stations Pressure Air Temp Water Temp Dewpoint Dewpoint Depression Visibility Wind Speed Wind Dir Waves Ship Positions

Cape York

Last reported at 2017-Oct-11 22:05 UTC. Time now 2017-Oct-22 23:16 UTC.
Position N 39°11' W 075°16'.
Warning: this ship's position is 11 days out of date.

Length 170 m; draft 7.8 m.

Type: Cargo ship. MMSI: 477924000.

Date/timePositionNaut miles runAvg speedWind from/ knotsBaromVisibWave heightAir tempDewpointWater temp
2017-Oct-11 22:05N 39°11' W 075°16'113.0
2017-Oct-11 21:59N 39°12' W 075°17'612.6
2017-Oct-11 21:30N 39°17' W 075°21'612.2
2017-Oct-11 21:00N 39°21' W 075°27'611.3
2017-Oct-11 20:30N 39°25' W 075°32'5 9.4
2017-Oct-11 20:00N 39°30' W 075°33'5 9.4
2017-Oct-11 19:30N 39°35' W 075°33'4 8.0
2017-Oct-11 19:00N 39°39' W 075°34'4 8.7
2017-Oct-11 18:30N 39°42' W 075°31'4 7.5
2017-Oct-11 18:00N 39°46' W 075°29'3 6.2
2017-Oct-11 17:31N 39°48' W 075°26'0 0.3
2017-Oct-11 17:00N 39°48' W 075°26'0 0.0
2017-Oct-11 00:00N 39°48' W 075°26'0 0.0
2017-Oct-10 23:30N 39°48' W 075°26'0 0.0
2017-Oct-10 23:00N 39°48' W 075°26'0 0.0
2017-Oct-10 22:30N 39°48' W 075°26'0 0.0
2017-Oct-10 22:00N 39°48' W 075°26'0 0.0
2017-Oct-10 21:30N 39°48' W 075°26'0 0.0
2017-Oct-10 21:00N 39°48' W 075°26'0 0.0
2017-Oct-10 20:30N 39°48' W 075°26'0 0.0
2017-Oct-10 20:00N 39°48' W 075°26'0 0.0
2017-Oct-10 19:30N 39°48' W 075°26'0 0.0
2017-Oct-10 19:00N 39°48' W 075°26'0 0.0
2017-Oct-10 18:30N 39°48' W 075°26'0 0.0
2017-Oct-10 18:00N 39°48' W 075°26'0 0.0
2017-Oct-10 17:30N 39°48' W 075°26'0 0.0
2017-Oct-10 16:57N 39°48' W 075°26'0 0.0
2017-Oct-10 16:30N 39°48' W 075°26'0 0.0
2017-Oct-10 16:00N 39°48' W 075°26'0 0.0
2017-Oct-10 15:30N 39°48' W 075°26'0 0.0
2017-Oct-10 15:00N 39°48' W 075°26'0 0.0
2017-Oct-10 13:57N 39°48' W 075°26'0 0.0
2017-Oct-10 13:30N 39°48' W 075°26'0 0.0
2017-Oct-10 13:00N 39°48' W 075°26'0 0.0
2017-Oct-10 12:30N 39°48' W 075°26'0 0.0
2017-Oct-10 12:00N 39°48' W 075°26'0 0.0
2017-Oct-10 11:30N 39°48' W 075°26'0 0.0
2017-Oct-10 11:00N 39°48' W 075°26'0 0.0
2017-Oct-10 10:30N 39°48' W 075°26'0 0.0
2017-Oct-10 10:00N 39°48' W 075°26'0 0.0
2017-Oct-10 09:31N 39°48' W 075°26'0 0.6
2017-Oct-10 09:00N 39°48' W 075°26'2 4.6
2017-Oct-10 08:30N 39°46' W 075°28'3 6.9
2017-Oct-10 08:00N 39°43' W 075°30'5 9.4
2017-Oct-10 07:30N 39°39' W 075°33'4 8.3
2017-Oct-10 07:01N 39°35' W 075°33'510.9
2017-Oct-10 06:30N 39°29' W 075°34'612.1
2017-Oct-10 06:00N 39°24' W 075°30'713.3
2017-Oct-10 05:30N 39°19' W 075°24'713.3
2017-Oct-10 05:00N 39°14' W 075°18'1112.8
2017-Oct-10 04:09N 39°05' W 075°11'212.6
2017-Oct-10 04:00N 39°03' W 075°10'67 3.7
2017-Oct-09 09:53N 38°19' W 074°05'512.2
2017-Oct-09 09:29N 38°18' W 073°59'912.4
2017-Oct-09 08:44N 38°16' W 073°47'612.1
2017-Oct-09 08:14N 38°15' W 073°40'  

Dump ship's entire track history